Time;durP1;ratioP1;P1;durP2;ratioP2;P2;SDS_P1;SDS_P2;PMS_P1;PMS_P2;Temp;Humidity;BMP_temperature;BMP_pressure;BME280_temperature;BME280_humidity;BME280_pressure;Samples;Min_cycle;Max_cycle;Signal;HPM_P1;HPM_P2
2021/04/30 00:01:06;;;;;;;5.00;2.90;;;11.00;56.50;;;;;;4936438;28;20138;-95
2021/04/30 00:03:32;;;;;;;5.47;3.28;;;11.00;56.50;;;;;;4915582;29;20032;-93
2021/04/30 00:05:58;;;;;;;5.25;3.10;;;11.10;56.60;;;;;;4931147;29;20470;-94
2021/04/30 00:08:23;;;;;;;4.68;2.60;;;11.00;56.50;;;;;;4912232;29;20465;-95
2021/04/30 00:10:50;;;;;;;4.88;3.20;;;11.10;57.20;;;;;;4913282;29;20036;-95
2021/04/30 00:13:16;;;;;;;4.50;3.00;;;11.10;56.60;;;;;;4920910;29;20039;-95
2021/04/30 00:15:42;;;;;;;4.25;3.00;;;11.00;56.60;;;;;;4913718;29;20013;-92
2021/04/30 00:18:08;;;;;;;5.07;2.83;;;11.00;56.50;;;;;;4902410;29;20537;-92
2021/04/30 00:20:37;;;;;;;5.30;3.20;;;11.00;57.20;;;;;;4900065;29;20036;-94
2021/04/30 00:23:11;;;;;;;3.75;2.70;;;11.10;56.60;;;;;;4917600;29;20062;-95
2021/04/30 00:25:36;;;;;;;5.28;3.30;;;11.00;56.50;;;;;;4884120;29;20039;-95
2021/04/30 00:28:03;;;;;;;5.50;3.13;;;11.10;56.60;;;;;;4915426;29;20139;-94
2021/04/30 00:30:28;;;;;;;4.80;2.90;;;11.00;56.50;;;;;;4901976;29;20044;-95
2021/04/30 00:32:54;;;;;;;4.28;2.75;;;11.00;56.50;;;;;;4904519;29;20052;-95
2021/04/30 00:35:20;;;;;;;4.05;2.67;;;11.00;56.50;;;;;;4924681;29;20035;-95
2021/04/30 00:37:46;;;;;;;5.07;2.85;;;11.00;56.50;;;;;;4871439;29;20473;-92
2021/04/30 00:40:15;;;;;;;4.32;2.80;;;11.00;56.50;;;;;;4928933;28;651773;-95
2021/04/30 00:42:41;;;;;;;3.70;2.25;;;11.00;56.50;;;;;;4938928;29;20034;-96
2021/04/30 00:45:13;;;;;;;3.85;2.92;;;11.00;56.50;;;;;;4936270;29;20027;-96
2021/04/30 00:47:39;;;;;;;2.97;2.58;;;11.00;56.50;;;;;;4922295;29;20032;-95
2021/04/30 00:50:10;;;;;;;4.72;2.80;;;11.00;56.40;;;;;;4905699;29;20035;-96
2021/04/30 00:52:37;;;;;;;4.05;2.90;;;11.00;56.50;;;;;;4925185;29;20032;-95
2021/04/30 00:55:06;;;;;;;5.03;2.70;;;11.00;56.40;;;;;;4944873;28;20023;-92
2021/04/30 00:57:32;;;;;;;4.38;2.85;;;11.00;57.10;;;;;;4945260;29;20032;-90
2021/04/30 00:59:59;;;;;;;3.38;2.80;;;11.00;56.40;;;;;;4956095;28;20066;-95
2021/04/30 01:02:25;;;;;;;4.47;2.90;;;11.00;56.50;;;;;;4962475;28;20032;-94
2021/04/30 01:04:52;;;;;;;4.00;2.70;;;11.00;56.50;;;;;;4918928;29;20046;-96
2021/04/30 01:07:18;;;;;;;4.63;2.95;;;11.00;56.50;;;;;;4961030;28;20038;-96
2021/04/30 01:09:44;;;;;;;3.97;2.35;;;11.00;56.50;;;;;;4928000;29;20043;-95
2021/04/30 01:12:11;;;;;;;4.30;2.35;;;11.00;57.10;;;;;;4937497;29;20470;-96
2021/04/30 01:14:37;;;;;;;3.85;2.60;;;11.00;56.50;;;;;;4940258;29;20046;-95
2021/04/30 01:17:03;;;;;;;4.15;2.70;;;11.00;56.50;;;;;;4934805;29;20036;-96
2021/04/30 01:19:30;;;;;;;3.88;2.92;;;11.00;56.50;;;;;;4921458;29;20024;-94
2021/04/30 01:21:57;;;;;;;4.45;3.08;;;11.00;56.50;;;;;;4942988;28;20050;-92
2021/04/30 01:24:24;;;;;;;4.30;2.95;;;11.00;56.50;;;;;;4959551;28;20032;-94
2021/04/30 01:26:51;;;;;;;4.45;2.90;;;11.00;56.50;;;;;;4940754;28;20030;-96
2021/04/30 01:29:17;;;;;;;4.57;2.80;;;11.00;56.50;;;;;;4946726;28;20041;-95
2021/04/30 01:31:44;;;;;;;4.03;2.42;;;11.00;56.40;;;;;;4920116;29;20034;-95
2021/04/30 01:34:11;;;;;;;4.50;3.08;;;11.00;56.50;;;;;;4938738;29;20459;-92
2021/04/30 01:36:37;;;;;;;4.18;2.92;;;11.00;56.50;;;;;;4954029;28;20027;-96
2021/04/30 01:39:07;;;;;;;4.35;2.85;;;11.00;56.50;;;;;;4982115;28;20055;-96
2021/04/30 01:41:37;;;;;;;4.43;2.60;;;11.00;56.50;;;;;;4921921;28;20027;-95
2021/04/30 01:44:13;;;;;;;3.90;2.60;;;11.00;56.50;;;;;;4939285;29;20089;-95
2021/04/30 01:46:40;;;;;;;4.53;3.00;;;11.00;56.60;;;;;;4974567;28;20127;-94
2021/04/30 01:49:08;;;;;;;3.80;2.60;;;11.00;56.50;;;;;;4929418;29;20043;-96
2021/04/30 01:51:36;;;;;;;5.35;3.10;;;11.00;56.50;;;;;;4925408;28;20523;-95
2021/04/30 01:54:05;;;;;;;4.00;2.60;;;11.10;56.50;;;;;;4940249;28;20030;-94
2021/04/30 01:56:32;;;;;;;4.68;2.65;;;11.00;56.50;;;;;;4939929;28;20031;-94
2021/04/30 01:58:59;;;;;;;3.67;2.65;;;11.00;56.40;;;;;;4960235;28;20023;-96
2021/04/30 02:01:25;;;;;;;3.97;2.75;;;11.00;56.40;;;;;;4939593;29;20027;-94
2021/04/30 02:03:51;;;;;;;3.60;2.55;;;11.00;56.40;;;;;;4944900;28;20034;-96
2021/04/30 02:06:17;;;;;;;4.97;3.13;;;11.00;56.40;;;;;;4962008;28;20023;-96
2021/04/30 02:08:43;;;;;;;3.58;2.70;;;11.00;56.40;;;;;;4941062;28;20034;-94
2021/04/30 02:11:09;;;;;;;4.90;3.08;;;11.00;56.40;;;;;;4953186;29;20126;-95
2021/04/30 02:13:35;;;;;;;3.78;2.88;;;11.00;56.40;;;;;;4938592;29;20042;-95
2021/04/30 02:16:01;;;;;;;3.60;2.72;;;11.00;56.40;;;;;;4929042;28;20110;-95
2021/04/30 02:18:26;;;;;;;3.80;2.55;;;11.00;56.40;;;;;;4922196;29;20024;-95
2021/04/30 02:20:53;;;;;;;4.40;2.83;;;11.00;56.40;;;;;;4943643;28;20039;-96
2021/04/30 02:23:20;;;;;;;4.07;2.78;;;11.00;56.40;;;;;;4937808;28;20145;-96
2021/04/30 02:25:46;;;;;;;4.15;2.92;;;11.00;56.40;;;;;;4939416;28;20026;-92
2021/04/30 02:28:12;;;;;;;4.35;3.17;;;11.00;56.40;;;;;;4953967;28;20058;-94
2021/04/30 02:30:39;;;;;;;4.97;2.97;;;11.00;56.40;;;;;;4947670;29;20129;-96
2021/04/30 02:33:06;;;;;;;4.20;2.70;;;11.00;56.40;;;;;;4926613;29;20047;-92
2021/04/30 02:35:34;;;;;;;3.00;2.50;;;11.00;56.40;;;;;;4937251;29;20050;-91
2021/04/30 02:38:01;;;;;;;3.88;2.78;;;11.00;56.40;;;;;;4931503;29;20024;-95
2021/04/30 02:40:29;;;;;;;4.35;2.58;;;11.00;56.50;;;;;;4921535;29;20048;-94
2021/04/30 02:42:57;;;;;;;4.15;2.70;;;11.00;56.40;;;;;;4957073;29;20477;-96
2021/04/30 02:45:26;;;;;;;4.78;2.80;;;11.00;56.40;;;;;;4952500;29;20016;-96
2021/04/30 02:47:56;;;;;;;3.45;2.60;;;11.00;56.40;;;;;;4945064;29;20032;-91
2021/04/30 02:50:30;;;;;;;5.15;2.65;;;11.00;56.40;;;;;;4920897;29;20040;-96
2021/04/30 02:52:57;;;;;;;3.70;2.60;;;11.00;56.50;;;;;;4987439;23;20032;-94
2021/04/30 02:55:25;;;;;;;3.90;2.63;;;11.00;56.40;;;;;;4952796;28;20481;-93
2021/04/30 02:57:53;;;;;;;3.17;2.60;;;11.00;56.50;;;;;;4964374;28;20031;-90
2021/04/30 03:00:21;;;;;;;4.53;2.65;;;11.00;56.50;;;;;;4962252;28;20031;-95
2021/04/30 03:02:47;;;;;;;4.47;2.83;;;11.00;56.50;;;;;;4968919;28;20065;-96
2021/04/30 03:05:15;;;;;;;3.75;2.58;;;11.00;56.40;;;;;;4954224;29;20024;-96
2021/04/30 03:07:44;;;;;;;4.57;2.60;;;11.00;56.50;;;;;;4989677;28;20031;-94
2021/04/30 03:10:10;;;;;;;4.95;2.92;;;11.00;56.40;;;;;;4928133;29;20043;-96
2021/04/30 03:12:42;;;;;;;3.53;2.60;;;11.00;56.40;;;;;;4997385;28;20011;-89
2021/04/30 03:15:10;;;;;;;4.38;2.45;;;11.00;56.40;;;;;;5042455;23;20062;-95
2021/04/30 03:20:09;;;;;;;4.13;2.50;;;11.00;56.50;;;;;;5281138;23;20045;-95
2021/04/30 03:33:26;;;;;;;4.35;2.75;;;11.00;56.50;;;;;;4633438;24;20257;-86
2021/04/30 03:39:54;;;;;;;4.32;2.63;;;11.00;56.60;;;;;;4082070;24;20226;-86
2021/04/30 03:42:32;;;;;;;3.78;2.28;;;10.90;56.50;;;;;;4789302;29;20047;-92
2021/04/30 03:45:01;;;;;;;4.28;2.90;;;10.90;56.40;;;;;;4783636;29;20032;-96
2021/04/30 04:04:02;;;;;;;3.60;2.47;;;10.90;56.50;;;;;;4805666;29;20035;-94
2021/04/30 04:06:33;;;;;;;4.93;2.55;;;11.00;56.50;;;;;;4819083;29;20032;-90
2021/04/30 04:09:02;;;;;;;4.13;2.85;;;11.00;56.50;;;;;;4823489;29;20071;-95
2021/04/30 04:11:28;;;;;;;3.95;2.75;;;11.00;56.50;;;;;;4798332;29;20046;-95
2021/04/30 04:13:55;;;;;;;4.78;2.60;;;11.00;56.50;;;;;;4804204;29;20015;-94
2021/04/30 04:16:24;;;;;;;3.65;2.78;;;11.00;56.40;;;;;;4900985;24;20053;-95
2021/04/30 04:18:52;;;;;;;4.50;2.63;;;11.00;56.50;;;;;;4797558;29;20034;-91
2021/04/30 04:24:10;;;;;;;3.92;2.72;;;11.00;56.40;;;;;;5284401;24;21385;-91
2021/04/30 04:38:47;;;;;;;3.85;2.63;;;11.00;56.40;;;;;;5631757;24;20237;31
2021/04/30 04:41:16;;;;;;;4.15;2.83;;;10.90;56.30;;;;;;4763097;30;20086;-94
2021/04/30 04:43:42;;;;;;;4.30;2.70;;;10.90;56.40;;;;;;4751641;30;20032;-91
2021/04/30 04:46:08;;;;;;;3.90;2.70;;;10.90;56.40;;;;;;4749904;30;20501;-90
2021/04/30 04:48:33;;;;;;;4.20;2.67;;;10.90;56.40;;;;;;4722136;30;20029;-86
2021/04/30 04:51:00;;;;;;;4.00;2.55;;;11.00;56.50;;;;;;4745295;30;20037;-91
2021/04/30 04:53:26;;;;;;;4.32;2.70;;;11.00;56.50;;;;;;4723555;30;20057;-91
2021/04/30 04:55:52;;;;;;;5.45;3.00;;;11.00;56.50;;;;;;4732894;30;20032;-89
2021/04/30 04:58:18;;;;;;;4.10;2.63;;;11.00;56.50;;;;;;4746453;30;20067;-90
2021/04/30 05:00:44;;;;;;;4.38;2.67;;;11.00;56.50;;;;;;4721149;30;20025;-89
2021/04/30 05:03:10;;;;;;;5.88;3.30;;;11.00;56.40;;;;;;4720313;30;20370;-89
2021/04/30 05:05:35;;;;;;;4.22;2.88;;;11.00;56.50;;;;;;4732553;30;20049;-88
2021/04/30 05:08:01;;;;;;;4.43;2.85;;;11.00;56.40;;;;;;4710954;30;20448;-89
2021/04/30 05:10:27;;;;;;;4.72;2.92;;;11.00;56.50;;;;;;4730234;30;20081;-87
2021/04/30 05:12:53;;;;;;;4.75;3.15;;;11.00;56.50;;;;;;4735256;30;20036;-89
2021/04/30 05:15:19;;;;;;;3.92;2.67;;;11.00;56.50;;;;;;4745105;30;20086;-90
2021/04/30 05:17:45;;;;;;;5.38;3.17;;;11.00;56.50;;;;;;4730864;30;20038;-92
2021/04/30 05:20:12;;;;;;;3.70;2.67;;;11.00;56.40;;;;;;4706396;30;20033;-92
2021/04/30 05:22:40;;;;;;;4.55;2.42;;;11.00;56.50;;;;;;4727188;30;20058;-88
2021/04/30 05:25:08;;;;;;;4.25;2.97;;;11.00;56.40;;;;;;4725942;30;20068;-88
2021/04/30 05:27:34;;;;;;;4.32;2.83;;;11.00;56.40;;;;;;4722453;30;20486;-84
2021/04/30 05:30:00;;;;;;;4.93;3.15;;;11.00;56.50;;;;;;4733288;30;20055;-91
2021/04/30 05:32:27;;;;;;;4.80;2.70;;;11.00;56.50;;;;;;4734865;30;20475;-93
2021/04/30 05:34:55;;;;;;;4.70;2.72;;;11.10;56.60;;;;;;4704299;30;20502;-86
2021/04/30 05:37:21;;;;;;;6.25;3.10;;;11.00;56.50;;;;;;4702700;30;20032;-85
2021/04/30 05:39:47;;;;;;;4.80;3.38;;;11.00;56.50;;;;;;4718655;30;20064;-89
2021/04/30 05:42:13;;;;;;;4.28;2.95;;;11.10;56.50;;;;;;4715585;30;20037;-88
2021/04/30 05:44:38;;;;;;;4.70;2.92;;;11.00;56.40;;;;;;4716831;30;20120;-87
2021/04/30 05:47:04;;;;;;;4.32;2.97;;;11.10;56.50;;;;;;4723532;30;20119;-88
2021/04/30 05:49:30;;;;;;;4.38;2.90;;;11.10;56.40;;;;;;4749998;30;20101;-88
2021/04/30 05:51:56;;;;;;;6.45;3.30;;;11.10;56.40;;;;;;4737456;30;20044;-88
2021/04/30 05:54:22;;;;;;;4.90;2.83;;;11.10;56.40;;;;;;4705200;30;20074;-87
2021/04/30 05:56:48;;;;;;;4.20;3.17;;;11.00;56.40;;;;;;4719763;30;20043;-89
2021/04/30 05:59:13;;;;;;;4.28;2.80;;;11.10;56.40;;;;;;4722689;30;20123;-87
2021/04/30 06:01:39;;;;;;;3.85;2.95;;;11.10;56.40;;;;;;4716557;30;20028;-87
2021/04/30 06:04:05;;;;;;;4.22;2.90;;;11.10;56.40;;;;;;4738048;30;20043;-88
2021/04/30 06:06:33;;;;;;;4.82;3.38;;;11.10;56.40;;;;;;4710339;30;20394;-90
2021/04/30 06:08:59;;;;;;;4.80;2.97;;;11.10;56.40;;;;;;4745893;30;20044;-93
2021/04/30 06:11:25;;;;;;;4.95;2.80;;;11.10;56.40;;;;;;4726771;30;20037;-92
2021/04/30 06:13:51;;;;;;;4.80;3.00;;;11.10;56.40;;;;;;4748621;30;20037;-89
2021/04/30 06:16:17;;;;;;;3.35;2.55;;;11.20;56.40;;;;;;4725677;30;20037;-90
2021/04/30 06:18:42;;;;;;;4.05;2.90;;;11.20;56.40;;;;;;4731870;30;20036;-89
2021/04/30 06:21:09;;;;;;;4.97;3.15;;;11.20;56.30;;;;;;4734725;30;20157;-90
2021/04/30 06:23:35;;;;;;;4.82;2.92;;;11.20;56.30;;;;;;4716782;30;20029;-90
2021/04/30 06:26:01;;;;;;;3.58;2.95;;;11.20;56.30;;;;;;4719158;30;20037;-90
2021/04/30 06:28:27;;;;;;;5.10;3.10;;;11.20;56.30;;;;;;4733652;30;20044;-91
2021/04/30 06:30:55;;;;;;;4.60;2.90;;;11.20;56.30;;;;;;4735170;30;20040;-90
2021/04/30 06:33:21;;;;;;;3.92;2.65;;;11.20;56.30;;;;;;4722890;30;20075;-91
2021/04/30 06:35:46;;;;;;;5.70;3.15;;;11.20;56.30;;;;;;4739963;30;20487;-91
2021/04/30 06:38:12;;;;;;;4.85;3.03;;;11.20;56.30;;;;;;4731104;30;20056;-91
2021/04/30 06:40:38;;;;;;;4.50;2.88;;;11.20;56.30;;;;;;4751600;30;20135;-91
2021/04/30 06:43:04;;;;;;;4.30;3.03;;;11.20;56.30;;;;;;4728833;30;20063;-90
2021/04/30 06:45:31;;;;;;;3.70;2.50;;;11.30;57.00;;;;;;4702943;30;20063;-92
2021/04/30 06:47:57;;;;;;;4.07;2.67;;;11.20;56.30;;;;;;4739569;30;20045;-89
2021/04/30 06:50:22;;;;;;;5.68;3.05;;;11.30;56.30;;;;;;4734015;30;20041;-84
2021/04/30 06:52:48;;;;;;;4.80;2.80;;;11.30;56.30;;;;;;4720699;30;20037;-90
2021/04/30 06:55:14;;;;;;;3.75;2.60;;;11.30;56.30;;;;;;4736941;30;20465;-95
2021/04/30 06:57:41;;;;;;;4.22;2.75;;;11.30;56.30;;;;;;4717509;30;20060;-92
2021/04/30 07:00:08;;;;;;;3.92;2.90;;;11.30;56.30;;;;;;4751600;30;20044;-92
2021/04/30 07:02:34;;;;;;;3.85;2.80;;;11.30;56.30;;;;;;4733355;30;20136;-91
2021/04/30 07:05:00;;;;;;;3.95;2.80;;;11.30;56.30;;;;;;4737031;30;20128;-93
2021/04/30 07:07:26;;;;;;;3.67;2.55;;;11.30;56.30;;;;;;4748305;30;20059;-94
2021/04/30 07:09:52;;;;;;;4.43;2.65;;;11.30;56.30;;;;;;4743714;30;20045;-91
2021/04/30 07:12:19;;;;;;;4.15;3.10;;;11.40;56.30;;;;;;4711515;30;20043;-89
2021/04/30 07:14:46;;;;;;;3.38;2.58;;;11.40;56.30;;;;;;4743771;30;20072;-92
2021/04/30 07:17:12;;;;;;;5.18;3.28;;;11.40;56.30;;;;;;4734389;30;20035;-91
2021/04/30 07:19:38;;;;;;;4.18;2.80;;;11.40;56.20;;;;;;4747405;30;20198;-90
2021/04/30 07:22:03;;;;;;;4.25;2.72;;;11.40;56.30;;;;;;4732199;30;20886;-93
2021/04/30 07:24:29;;;;;;;3.42;2.53;;;11.40;56.20;;;;;;4733514;30;20119;-94
2021/04/30 07:26:55;;;;;;;4.20;2.63;;;11.40;56.20;;;;;;4722211;30;20044;-94
2021/04/30 07:29:21;;;;;;;4.15;2.95;;;11.50;56.20;;;;;;4737020;30;20399;-93
2021/04/30 07:31:47;;;;;;;4.85;2.90;;;11.50;56.20;;;;;;4718338;30;20041;-93
2021/04/30 07:34:13;;;;;;;3.38;2.55;;;11.50;56.30;;;;;;4751269;30;20103;-91
2021/04/30 07:36:38;;;;;;;3.90;2.67;;;11.50;56.20;;;;;;4759730;30;20145;-92
2021/04/30 07:39:05;;;;;;;4.05;3.03;;;11.50;56.20;;;;;;4736848;30;20402;-92
2021/04/30 07:41:30;;;;;;;5.13;3.08;;;11.50;56.20;;;;;;4736337;30;20464;-92
2021/04/30 07:43:56;;;;;;;3.42;2.53;;;11.60;56.20;;;;;;4739892;30;20127;-91
2021/04/30 07:46:22;;;;;;;5.28;2.88;;;11.60;56.20;;;;;;4722189;30;20045;-89
2021/04/30 07:48:48;;;;;;;5.22;3.20;;;11.60;56.20;;;;;;4735943;30;20073;-90
2021/04/30 07:51:14;;;;;;;4.22;2.78;;;11.60;56.20;;;;;;4745553;30;20408;-90
2021/04/30 07:53:40;;;;;;;4.05;2.92;;;11.70;56.20;;;;;;4741115;30;20048;-90
2021/04/30 07:56:06;;;;;;;5.13;3.10;;;11.70;56.20;;;;;;4712888;30;20046;-91
2021/04/30 07:58:31;;;;;;;5.38;3.22;;;11.70;56.20;;;;;;4749609;30;20123;-89
2021/04/30 08:00:58;;;;;;;5.05;2.95;;;11.70;56.20;;;;;;4721523;30;20043;-90
2021/04/30 08:03:25;;;;;;;4.93;3.30;;;11.70;56.20;;;;;;4739003;30;20506;-91
2021/04/30 08:05:51;;;;;;;3.47;2.75;;;11.80;56.30;;;;;;4741692;30;20064;-91
2021/04/30 08:08:17;;;;;;;5.00;3.10;;;11.80;56.20;;;;;;4752396;30;20038;-89
2021/04/30 08:10:44;;;;;;;4.45;2.97;;;11.80;56.90;;;;;;4735740;30;20506;-89
2021/04/30 08:13:10;;;;;;;5.30;3.22;;;11.80;56.20;;;;;;4720387;30;20056;-90
2021/04/30 08:15:39;;;;;;;4.10;2.90;;;11.90;56.30;;;;;;4752425;30;20032;-89
2021/04/30 08:18:05;;;;;;;4.05;3.10;;;11.90;56.20;;;;;;4720828;30;20033;-89
2021/04/30 08:20:32;;;;;;;4.55;3.33;;;11.90;56.20;;;;;;4735358;30;20159;-90
2021/04/30 08:22:58;;;;;;;4.85;3.47;;;11.90;56.20;;;;;;4719290;30;20098;-90
2021/04/30 08:25:26;;;;;;;4.03;3.00;;;12.00;56.20;;;;;;4735671;30;20044;-90
2021/04/30 08:27:52;;;;;;;5.60;3.20;;;12.00;56.20;;;;;;4720425;30;20036;-89
2021/04/30 08:30:18;;;;;;;4.68;3.10;;;12.00;56.10;;;;;;4730436;30;20044;-91
2021/04/30 08:32:44;;;;;;;4.50;3.05;;;12.00;56.10;;;;;;4726426;30;20036;-91
2021/04/30 08:35:10;;;;;;;4.90;3.10;;;12.00;56.10;;;;;;4734315;30;20033;-89
2021/04/30 08:37:36;;;;;;;4.45;3.03;;;12.10;56.10;;;;;;4720661;30;20045;-91
2021/04/30 08:40:06;;;;;;;4.22;3.17;;;12.10;56.10;;;;;;4755312;30;20067;-91
2021/04/30 08:42:34;;;;;;;5.72;3.28;;;12.10;56.10;;;;;;4736166;30;20028;-90
2021/04/30 08:45:00;;;;;;;4.90;3.35;;;12.20;56.10;;;;;;4754364;30;20043;-90
2021/04/30 08:47:26;;;;;;;5.40;3.47;;;12.20;56.00;;;;;;4725431;30;20108;-92
2021/04/30 08:49:56;;;;;;;5.38;3.63;;;12.20;56.00;;;;;;4719912;30;20182;-90
2021/04/30 08:52:22;;;;;;;5.30;3.72;;;12.30;56.00;;;;;;4728542;30;20044;-90
2021/04/30 08:54:52;;;;;;;5.90;3.90;;;12.30;56.00;;;;;;4736005;30;20111;-87
2021/04/30 08:57:23;;;;;;;5.53;3.78;;;12.30;55.90;;;;;;4737804;30;20035;-88
2021/04/30 09:00:00;;;;;;;5.25;3.58;;;12.40;55.90;;;;;;4735555;30;20479;-87
2021/04/30 09:02:27;;;;;;;5.03;3.67;;;12.40;55.90;;;;;;4733809;30;20039;-82
2021/04/30 09:04:53;;;;;;;5.13;3.75;;;12.40;55.80;;;;;;4749686;30;20049;-90
2021/04/30 09:07:24;;;;;;;4.50;3.38;;;12.50;55.90;;;;;;4735536;30;20483;-91
2021/04/30 09:10:07;;;;;;;5.70;3.65;;;12.50;55.80;;;;;;4757747;30;20037;-90
2021/04/30 09:12:34;;;;;;;4.75;3.67;;;12.60;55.90;;;;;;4740939;30;20115;-90
2021/04/30 09:15:00;;;;;;;5.00;3.40;;;12.60;55.80;;;;;;4728598;30;20059;-90
2021/04/30 09:17:29;;;;;;;4.82;3.25;;;12.60;55.80;;;;;;4724451;30;20079;-90
2021/04/30 09:20:02;;;;;;;4.85;3.65;;;12.70;55.80;;;;;;4734047;30;20024;-89
2021/04/30 09:22:46;;;;;;;5.20;3.75;;;12.70;55.80;;;;;;4734014;30;20090;-89
2021/04/30 09:25:17;;;;;;;5.75;4.10;;;12.70;55.80;;;;;;4739984;30;20040;-89
2021/04/30 09:27:48;;;;;;;5.07;3.70;;;12.80;55.70;;;;;;4740459;30;20467;-89
2021/04/30 09:30:30;;;;;;;4.63;3.50;;;12.80;56.30;;;;;;4720202;30;20106;-90
2021/04/30 09:33:03;;;;;;;5.35;3.63;;;12.80;55.70;;;;;;4734642;30;20044;-89
2021/04/30 09:35:30;;;;;;;6.57;4.20;;;12.80;55.60;;;;;;4728155;30;20464;-90
2021/04/30 09:37:58;;;;;;;5.90;4.25;;;12.90;55.60;;;;;;4725703;30;20068;-91
2021/04/30 09:40:33;;;;;;;5.68;4.00;;;12.90;55.60;;;;;;4749708;30;20056;-91
2021/04/30 09:43:04;;;;;;;5.68;4.07;;;13.00;55.60;;;;;;4752404;30;20615;-90
2021/04/30 09:45:32;;;;;;;7.00;4.47;;;13.00;55.60;;;;;;4739381;30;20064;-91
2021/04/30 09:48:00;;;;;;;6.00;4.28;;;13.00;55.60;;;;;;4738424;30;20044;-90
2021/04/30 09:50:28;;;;;;;5.30;4.03;;;13.10;55.60;;;;;;4749397;30;20051;-91
2021/04/30 09:53:03;;;;;;;6.32;4.53;;;13.10;55.60;;;;;;4748808;30;20075;-90
2021/04/30 09:55:42;;;;;;;6.22;4.78;;;13.10;55.60;;;;;;4722537;30;20035;-89
2021/04/30 09:58:20;;;;;;;5.85;4.15;;;13.10;55.60;;;;;;4741444;30;20475;-88
2021/04/30 10:00:51;;;;;;;5.72;4.07;;;13.10;55.50;;;;;;4733948;30;20119;-91
2021/04/30 10:03:25;;;;;;;6.13;4.35;;;13.20;55.50;;;;;;4744538;30;20044;-90
2021/04/30 10:06:09;;;;;;;5.67;4.30;;;13.20;55.60;;;;;;4722474;30;20724;-89
2021/04/30 10:08:35;;;;;;;6.03;4.53;;;13.20;55.60;;;;;;4734482;30;20298;-90
2021/04/30 10:11:02;;;;;;;6.10;4.28;;;13.20;55.50;;;;;;4719425;30;20029;-92
2021/04/30 10:13:28;;;;;;;6.13;4.38;;;13.20;55.50;;;;;;4711446;30;20047;-91
2021/04/30 10:15:54;;;;;;;7.50;4.38;;;13.20;55.50;;;;;;4748376;30;20033;-88
2021/04/30 10:18:20;;;;;;;6.40;4.63;;;13.20;55.60;;;;;;4713814;30;20025;-90
2021/04/30 10:20:46;;;;;;;6.47;4.45;;;13.20;55.60;;;;;;4736179;30;20119;-89
2021/04/30 10:23:20;;;;;;;6.32;4.65;;;13.30;55.70;;;;;;4764139;30;20075;-90
2021/04/30 10:25:51;;;;;;;6.28;4.82;;;13.30;55.70;;;;;;4737436;30;20101;-92
2021/04/30 10:28:24;;;;;;;6.40;4.35;;;13.30;55.70;;;;;;4742116;30;20029;-91
2021/04/30 10:30:54;;;;;;;7.00;4.53;;;13.30;55.70;;;;;;4735353;30;20094;-94
2021/04/30 10:33:29;;;;;;;6.18;4.75;;;13.30;55.80;;;;;;4752465;30;20089;-93
2021/04/30 10:36:07;;;;;;;6.13;4.75;;;13.30;55.70;;;;;;4752425;30;20402;-93
2021/04/30 10:38:42;;;;;;;7.85;5.05;;;13.30;55.70;;;;;;4738856;30;20476;-92
2021/04/30 10:41:10;;;;;;;5.65;4.72;;;13.30;55.90;;;;;;4756259;30;20059;-92
2021/04/30 10:43:37;;;;;;;7.50;5.50;;;13.30;55.80;;;;;;4745765;30;20056;-92
2021/04/30 10:46:15;;;;;;;6.13;4.70;;;13.30;55.90;;;;;;4751942;30;20033;-92
2021/04/30 10:49:20;;;;;;;6.75;4.90;;;13.30;56.00;;;;;;4734426;30;20049;-93
2021/04/30 10:52:08;;;;;;;6.95;5.03;;;13.30;56.00;;;;;;4756715;30;20058;-92
2021/04/30 10:54:36;;;;;;;7.03;4.95;;;13.40;56.00;;;;;;4737626;30;20124;-92
2021/04/30 10:57:12;;;;;;;6.78;5.15;;;13.30;56.50;;;;;;4737780;30;20025;-93
2021/04/30 10:59:40;;;;;;;7.40;5.35;;;13.30;56.00;;;;;;4749631;30;20089;-94
2021/04/30 11:02:29;;;;;;;6.13;4.97;;;13.30;56.00;;;;;;4738202;30;20040;-95
2021/04/30 11:05:10;;;;;;;6.80;5.13;;;13.30;56.10;;;;;;4756458;30;20428;-94
2021/04/30 11:07:59;;;;;;;6.63;4.88;;;13.30;56.10;;;;;;4729230;30;20131;-95
2021/04/30 11:10:31;;;;;;;7.45;5.57;;;13.30;56.00;;;;;;4738171;30;20056;-94
2021/04/30 11:13:04;;;;;;;7.43;5.45;;;13.30;56.00;;;;;;4749642;30;20061;-96
2021/04/30 11:15:31;;;;;;;6.03;4.72;;;13.30;56.10;;;;;;4751737;30;20049;-95
2021/04/30 11:18:02;;;;;;;6.60;5.18;;;13.40;56.00;;;;;;4739652;30;20033;-94
2021/04/30 11:20:33;;;;;;;6.95;5.15;;;13.30;56.00;;;;;;4738104;30;20051;-95
2021/04/30 11:23:25;;;;;;;6.82;5.00;;;13.30;56.00;;;;;;4735331;30;20041;-94
2021/04/30 11:25:57;;;;;;;7.15;5.28;;;13.40;56.10;;;;;;4722296;30;20137;-90
2021/04/30 11:28:30;;;;;;;7.72;5.57;;;13.40;55.90;;;;;;4752099;30;20032;-91
2021/04/30 11:31:04;;;;;;;7.07;5.40;;;13.40;55.90;;;;;;4737435;30;20055;-91
2021/04/30 11:33:36;;;;;;;7.10;5.53;;;13.40;55.90;;;;;;4738043;30;20086;-92
2021/04/30 11:36:04;;;;;;;6.93;5.43;;;13.50;55.90;;;;;;4748235;30;20049;-90
2021/04/30 11:38:47;;;;;;;8.30;6.25;;;13.40;55.70;;;;;;4738372;30;20045;-89
2021/04/30 11:41:14;;;;;;;7.47;5.78;;;13.50;55.80;;;;;;4738628;30;20060;-87
2021/04/30 11:43:47;;;;;;;6.50;5.07;;;13.50;55.70;;;;;;4724458;30;20120;-87
2021/04/30 11:46:13;;;;;;;8.05;5.35;;;13.50;55.70;;;;;;4739290;30;20066;-86
2021/04/30 11:48:43;;;;;;;6.63;5.00;;;13.60;55.60;;;;;;4735705;30;20056;-86
2021/04/30 11:51:11;;;;;;;7.95;5.63;;;13.60;55.70;;;;;;4751314;30;20048;-85
2021/04/30 11:53:43;;;;;;;6.90;5.10;;;13.60;55.60;;;;;;4736939;30;20032;-85
2021/04/30 11:56:12;;;;;;;7.57;5.70;;;13.70;55.60;;;;;;4736651;30;20114;-85
2021/04/30 11:58:43;;;;;;;6.55;5.72;;;13.70;55.60;;;;;;4721864;30;20044;-88
2021/04/30 12:01:12;;;;;;;6.53;5.10;;;13.70;55.50;;;;;;4721808;30;20408;-85
2021/04/30 12:03:45;;;;;;;7.30;5.25;;;13.80;55.50;;;;;;4722805;30;20029;-87
2021/04/30 12:06:15;;;;;;;6.03;4.53;;;13.80;55.50;;;;;;4735021;30;20032;-85
2021/04/30 12:08:42;;;;;;;6.80;5.28;;;13.90;55.50;;;;;;4737134;30;20052;-91
2021/04/30 12:11:35;;;;;;;6.65;4.90;;;13.90;55.50;;;;;;4738448;30;20497;-93
2021/04/30 12:14:06;;;;;;;7.38;5.00;;;14.00;55.60;;;;;;4747799;30;20033;-89
2021/04/30 12:16:32;;;;;;;6.20;5.10;;;14.00;55.40;;;;;;4736503;30;20053;-89
2021/04/30 12:18:58;;;;;;;6.43;5.35;;;14.00;55.30;;;;;;4746369;30;20119;-89
2021/04/30 12:21:33;;;;;;;6.22;5.18;;;14.10;55.30;;;;;;4726617;30;20037;-89
2021/04/30 12:24:01;;;;;;;;;;;14.10;55.40;;;;;;4759426;30;20041;-89
2021/04/30 12:26:32;;;;;;;5.63;4.68;;;14.20;55.30;;;;;;4723782;30;19918;-88
2021/04/30 12:28:59;;;;;;;6.57;5.13;;;14.20;55.20;;;;;;4735690;30;20070;-89
2021/04/30 12:31:25;;;;;;;7.22;5.40;;;14.20;55.20;;;;;;4730345;30;20482;-90
2021/04/30 12:33:53;;;;;;;6.10;4.97;;;14.30;55.20;;;;;;4735708;30;20112;-90
2021/04/30 12:36:22;;;;;;;7.25;5.50;;;14.30;55.30;;;;;;4736696;30;20036;-92
2021/04/30 12:38:54;;;;;;;7.13;5.55;;;14.40;55.30;;;;;;4723698;30;20033;-90
2021/04/30 12:41:29;;;;;;;5.72;4.80;;;14.40;55.20;;;;;;4735801;30;20071;-90
2021/04/30 12:44:03;;;;;;;6.43;4.78;;;14.50;55.20;;;;;;4738194;30;20041;-90
2021/04/30 12:46:38;;;;;;;6.03;4.60;;;14.50;55.10;;;;;;4729964;30;20406;-90
2021/04/30 12:49:09;;;;;;;6.50;4.95;;;14.50;55.00;;;;;;4750271;30;20064;-87
2021/04/30 12:51:37;;;;;;;6.88;5.43;;;14.60;55.00;;;;;;4722213;30;20032;-90
2021/04/30 12:54:04;;;;;;;7.07;5.18;;;14.60;55.00;;;;;;4723920;30;20037;-91
2021/04/30 12:56:31;;;;;;;6.22;5.03;;;14.70;55.00;;;;;;4730041;30;20128;-90
2021/04/30 12:59:11;;;;;;;5.90;4.70;;;14.70;54.90;;;;;;4740984;30;20040;-90
2021/04/30 13:01:40;;;;;;;6.07;5.00;;;14.80;54.90;;;;;;4739146;30;20078;-91
2021/04/30 13:04:06;;;;;;;6.00;4.55;;;14.80;54.80;;;;;;4762355;30;20108;-89
2021/04/30 13:06:35;;;;;;;6.00;4.75;;;14.90;54.90;;;;;;4735008;30;20043;-90
2021/04/30 13:09:02;;;;;;;6.28;4.88;;;14.90;54.80;;;;;;4739488;30;20170;-90
2021/04/30 13:11:28;;;;;;;6.13;4.45;;;15.00;54.80;;;;;;4746014;30;20045;-89
2021/04/30 13:14:01;;;;;;;5.93;4.82;;;15.00;54.80;;;;;;4751094;30;20033;-89
2021/04/30 13:16:42;;;;;;;5.85;4.43;;;15.00;54.70;;;;;;4756459;30;20046;-90
2021/04/30 13:19:23;;;;;;;5.97;4.60;;;15.10;54.70;;;;;;4734866;30;20068;-90
2021/04/30 13:21:55;;;;;;;7.05;5.22;;;15.20;54.60;;;;;;4729618;30;20035;-90
2021/04/30 13:24:27;;;;;;;5.03;4.10;;;15.20;54.50;;;;;;4740694;30;20029;-90
2021/04/30 13:27:05;;;;;;;5.68;4.22;;;15.30;54.50;;;;;;4722868;30;20135;-89
2021/04/30 13:29:37;;;;;;;6.05;4.20;;;15.30;54.40;;;;;;4729893;30;20123;-90
2021/04/30 13:32:04;;;;;;;5.70;4.55;;;15.40;54.40;;;;;;4753511;30;20032;-91
2021/04/30 13:34:46;;;;;;;5.57;4.15;;;15.40;54.30;;;;;;4757470;30;20040;-90
2021/04/30 13:37:16;;;;;;;5.03;4.13;;;15.50;54.30;;;;;;4738167;30;20040;-90
2021/04/30 13:39:44;;;;;;;5.97;4.38;;;15.50;54.30;;;;;;4749006;30;20063;-89
2021/04/30 13:42:30;;;;;;;5.93;4.22;;;15.50;54.20;;;;;;4724270;30;20056;-91
2021/04/30 13:45:01;;;;;;;5.55;3.90;;;15.60;54.30;;;;;;4718897;30;20068;-89